sensor_id;sensor_type;location;lat;lon;timestamp;temperature;humidity
43185;DHT22;28803;52.308;19.096;2023-01-09T00:01:58;2.60;99.90
43185;DHT22;28803;52.308;19.096;2023-01-09T00:04:24;2.60;99.90
43185;DHT22;28803;52.308;19.096;2023-01-09T00:06:51;2.50;99.90
43185;DHT22;28803;52.308;19.096;2023-01-09T00:09:22;2.60;99.90
43185;DHT22;28803;52.308;19.096;2023-01-09T00:11:49;2.50;99.90
43185;DHT22;28803;52.308;19.096;2023-01-09T00:14:17;2.50;99.90
43185;DHT22;28803;52.308;19.096;2023-01-09T00:16:44;2.40;99.90
43185;DHT22;28803;52.308;19.096;2023-01-09T00:19:10;2.40;99.90
43185;DHT22;28803;52.308;19.096;2023-01-09T00:21:37;2.30;99.90
43185;DHT22;28803;52.308;19.096;2023-01-09T00:24:04;2.30;99.90
43185;DHT22;28803;52.308;19.096;2023-01-09T00:26:30;2.30;99.90
43185;DHT22;28803;52.308;19.096;2023-01-09T00:28:58;2.30;99.90
43185;DHT22;28803;52.308;19.096;2023-01-09T00:31:24;2.40;99.90
43185;DHT22;28803;52.308;19.096;2023-01-09T00:36:23;2.20;99.90
43185;DHT22;28803;52.308;19.096;2023-01-09T00:38:50;2.30;99.90
43185;DHT22;28803;52.308;19.096;2023-01-09T00:41:21;2.30;99.90
43185;DHT22;28803;52.308;19.096;2023-01-09T00:43:53;2.20;99.90
43185;DHT22;28803;52.308;19.096;2023-01-09T00:46:26;2.20;99.90
43185;DHT22;28803;52.308;19.096;2023-01-09T00:48:54;2.30;99.90
43185;DHT22;28803;52.308;19.096;2023-01-09T00:51:21;2.20;99.90
43185;DHT22;28803;52.308;19.096;2023-01-09T00:53:49;2.20;99.90
43185;DHT22;28803;52.308;19.096;2023-01-09T00:56:18;2.20;99.90
43185;DHT22;28803;52.308;19.096;2023-01-09T00:58:45;2.20;99.90
43185;DHT22;28803;52.308;19.096;2023-01-09T01:01:11;2.10;99.90
43185;DHT22;28803;52.308;19.096;2023-01-09T01:03:39;2.00;99.90
43185;DHT22;28803;52.308;19.096;2023-01-09T01:06:05;2.00;99.90
43185;DHT22;28803;52.308;19.096;2023-01-09T01:08:51;2.00;99.90
43185;DHT22;28803;52.308;19.096;2023-01-09T01:11:17;2.00;99.90
43185;DHT22;28803;52.308;19.096;2023-01-09T01:13:44;1.80;99.90
43185;DHT22;28803;52.308;19.096;2023-01-09T01:16:11;1.80;99.90
43185;DHT22;28803;52.308;19.096;2023-01-09T01:18:39;1.60;99.90
43185;DHT22;28803;52.308;19.096;2023-01-09T01:21:07;1.60;99.90
43185;DHT22;28803;52.308;19.096;2023-01-09T01:23:35;1.50;99.90
43185;DHT22;28803;52.308;19.096;2023-01-09T01:26:10;1.40;99.90
43185;DHT22;28803;52.308;19.096;2023-01-09T01:28:37;1.50;99.90
43185;DHT22;28803;52.308;19.096;2023-01-09T01:31:04;1.50;99.90
43185;DHT22;28803;52.308;19.096;2023-01-09T01:33:32;1.60;99.90
43185;DHT22;28803;52.308;19.096;2023-01-09T01:36:04;1.60;99.90
43185;DHT22;28803;52.308;19.096;2023-01-09T01:38:31;1.70;99.90
43185;DHT22;28803;52.308;19.096;2023-01-09T01:40:58;1.70;99.90
43185;DHT22;28803;52.308;19.096;2023-01-09T01:43:25;1.70;99.90
43185;DHT22;28803;52.308;19.096;2023-01-09T01:45:51;1.70;99.90
43185;DHT22;28803;52.308;19.096;2023-01-09T01:48:27;1.70;99.90
43185;DHT22;28803;52.308;19.096;2023-01-09T01:51:03;1.70;99.90
43185;DHT22;28803;52.308;19.096;2023-01-09T01:53:37;1.60;99.90
43185;DHT22;28803;52.308;19.096;2023-01-09T01:56:25;1.60;99.90
43185;DHT22;28803;52.308;19.096;2023-01-09T01:59:16;2.00;99.90
43185;DHT22;28803;52.308;19.096;2023-01-09T02:01:48;1.60;99.90
43185;DHT22;28803;52.308;19.096;2023-01-09T02:04:16;1.60;99.90
43185;DHT22;28803;52.308;19.096;2023-01-09T02:06:43;1.50;99.90
43185;DHT22;28803;52.308;19.096;2023-01-09T02:09:13;1.50;99.90
43185;DHT22;28803;52.308;19.096;2023-01-09T02:11:44;1.50;99.90
43185;DHT22;28803;52.308;19.096;2023-01-09T02:14:12;1.50;99.90
43185;DHT22;28803;52.308;19.096;2023-01-09T02:25:52;1.50;99.90
43185;DHT22;28803;52.308;19.096;2023-01-09T02:31:43;1.50;99.90
43185;DHT22;28803;52.308;19.096;2023-01-09T02:34:18;1.50;99.90
43185;DHT22;28803;52.308;19.096;2023-01-09T02:39:42;1.50;99.90
43185;DHT22;28803;52.308;19.096;2023-01-09T02:42:20;1.50;99.90
43185;DHT22;28803;52.308;19.096;2023-01-09T02:44:47;1.60;99.90
43185;DHT22;28803;52.308;19.096;2023-01-09T02:49:42;1.60;99.90
43185;DHT22;28803;52.308;19.096;2023-01-09T02:57:59;1.70;99.90
43185;DHT22;28803;52.308;19.096;2023-01-09T03:00:33;1.70;99.90
43185;DHT22;28803;52.308;19.096;2023-01-09T03:03:09;1.70;99.90
43185;DHT22;28803;52.308;19.096;2023-01-09T03:05:43;1.70;99.90
43185;DHT22;28803;52.308;19.096;2023-01-09T03:08:19;1.70;99.90
43185;DHT22;28803;52.308;19.096;2023-01-09T03:13:23;1.90;99.90
43185;DHT22;28803;52.308;19.096;2023-01-09T03:15:53;2.00;99.90
43185;DHT22;28803;52.308;19.096;2023-01-09T03:18:23;2.00;99.90
43185;DHT22;28803;52.308;19.096;2023-01-09T03:20:51;2.10;99.90
43185;DHT22;28803;52.308;19.096;2023-01-09T03:23:18;2.20;99.90
43185;DHT22;28803;52.308;19.096;2023-01-09T03:25:44;2.30;99.90
43185;DHT22;28803;52.308;19.096;2023-01-09T03:28:29;2.30;99.90
43185;DHT22;28803;52.308;19.096;2023-01-09T03:30:56;2.30;99.90
43185;DHT22;28803;52.308;19.096;2023-01-09T03:33:23;2.40;99.90
43185;DHT22;28803;52.308;19.096;2023-01-09T03:35:50;2.40;99.90
43185;DHT22;28803;52.308;19.096;2023-01-09T03:38:16;2.50;99.90
43185;DHT22;28803;52.308;19.096;2023-01-09T03:40:43;2.50;99.90
43185;DHT22;28803;52.308;19.096;2023-01-09T03:43:10;2.50;99.90
43185;DHT22;28803;52.308;19.096;2023-01-09T03:45:36;2.50;99.90
43185;DHT22;28803;52.308;19.096;2023-01-09T03:48:03;2.50;99.90
43185;DHT22;28803;52.308;19.096;2023-01-09T03:50:29;2.50;99.90
43185;DHT22;28803;52.308;19.096;2023-01-09T03:52:56;2.50;99.90
43185;DHT22;28803;52.308;19.096;2023-01-09T03:55:22;2.50;99.90
43185;DHT22;28803;52.308;19.096;2023-01-09T03:57:49;2.40;99.90
43185;DHT22;28803;52.308;19.096;2023-01-09T04:00:19;2.30;99.90
43185;DHT22;28803;52.308;19.096;2023-01-09T04:02:46;2.20;99.90
43185;DHT22;28803;52.308;19.096;2023-01-09T04:05:12;2.20;99.90
43185;DHT22;28803;52.308;19.096;2023-01-09T04:07:39;2.10;99.90
43185;DHT22;28803;52.308;19.096;2023-01-09T04:10:06;2.10;99.90
43185;DHT22;28803;52.308;19.096;2023-01-09T04:12:33;2.00;99.90
43185;DHT22;28803;52.308;19.096;2023-01-09T04:14:59;2.00;99.90
43185;DHT22;28803;52.308;19.096;2023-01-09T04:17:26;2.00;99.90
43185;DHT22;28803;52.308;19.096;2023-01-09T04:19:52;2.00;99.90
43185;DHT22;28803;52.308;19.096;2023-01-09T04:22:19;1.90;99.90
43185;DHT22;28803;52.308;19.096;2023-01-09T04:24:45;2.00;99.90
43185;DHT22;28803;52.308;19.096;2023-01-09T04:27:12;1.90;99.90
43185;DHT22;28803;52.308;19.096;2023-01-09T04:29:38;2.00;99.90
43185;DHT22;28803;52.308;19.096;2023-01-09T04:32:05;2.00;99.90
43185;DHT22;28803;52.308;19.096;2023-01-09T04:34:31;2.00;99.90
43185;DHT22;28803;52.308;19.096;2023-01-09T04:36:58;2.00;99.90
43185;DHT22;28803;52.308;19.096;2023-01-09T04:39:24;2.00;99.90
43185;DHT22;28803;52.308;19.096;2023-01-09T04:41:51;2.00;99.90
43185;DHT22;28803;52.308;19.096;2023-01-09T04:44:19;2.00;99.90
43185;DHT22;28803;52.308;19.096;2023-01-09T04:46:47;1.90;99.90
43185;DHT22;28803;52.308;19.096;2023-01-09T04:49:14;2.00;99.90
43185;DHT22;28803;52.308;19.096;2023-01-09T04:51:41;2.00;99.90
43185;DHT22;28803;52.308;19.096;2023-01-09T04:54:07;1.90;99.90
43185;DHT22;28803;52.308;19.096;2023-01-09T04:56:35;1.90;99.90
43185;DHT22;28803;52.308;19.096;2023-01-09T04:59:02;1.90;99.90
43185;DHT22;28803;52.308;19.096;2023-01-09T05:01:29;2.00;99.90
43185;DHT22;28803;52.308;19.096;2023-01-09T05:03:56;2.00;99.90
43185;DHT22;28803;52.308;19.096;2023-01-09T05:06:23;2.00;99.90
43185;DHT22;28803;52.308;19.096;2023-01-09T05:08:49;2.00;99.90
43185;DHT22;28803;52.308;19.096;2023-01-09T05:11:16;2.00;99.90
43185;DHT22;28803;52.308;19.096;2023-01-09T05:13:43;2.00;99.90
43185;DHT22;28803;52.308;19.096;2023-01-09T05:16:10;2.00;99.90
43185;DHT22;28803;52.308;19.096;2023-01-09T05:18:36;2.00;99.90
43185;DHT22;28803;52.308;19.096;2023-01-09T05:21:03;2.00;99.90
43185;DHT22;28803;52.308;19.096;2023-01-09T05:23:29;2.00;99.90
43185;DHT22;28803;52.308;19.096;2023-01-09T05:25:56;2.10;99.90
43185;DHT22;28803;52.308;19.096;2023-01-09T05:28:23;2.10;99.90
43185;DHT22;28803;52.308;19.096;2023-01-09T05:30:49;2.20;99.90
43185;DHT22;28803;52.308;19.096;2023-01-09T05:33:15;2.20;99.90
43185;DHT22;28803;52.308;19.096;2023-01-09T05:35:42;2.30;99.90
43185;DHT22;28803;52.308;19.096;2023-01-09T05:38:08;2.20;99.90
43185;DHT22;28803;52.308;19.096;2023-01-09T05:40:35;2.30;99.90
43185;DHT22;28803;52.308;19.096;2023-01-09T05:43:06;2.30;99.90
43185;DHT22;28803;52.308;19.096;2023-01-09T05:45:33;2.30;99.90
43185;DHT22;28803;52.308;19.096;2023-01-09T05:48:00;2.30;99.90
43185;DHT22;28803;52.308;19.096;2023-01-09T05:50:26;2.30;99.90
43185;DHT22;28803;52.308;19.096;2023-01-09T05:52:53;2.30;99.90
43185;DHT22;28803;52.308;19.096;2023-01-09T05:55:19;2.30;99.90
43185;DHT22;28803;52.308;19.096;2023-01-09T05:57:45;2.30;99.90
43185;DHT22;28803;52.308;19.096;2023-01-09T06:00:13;2.30;99.90
43185;DHT22;28803;52.308;19.096;2023-01-09T06:02:39;2.30;99.90
43185;DHT22;28803;52.308;19.096;2023-01-09T06:05:06;2.40;99.90
43185;DHT22;28803;52.308;19.096;2023-01-09T06:07:33;2.40;99.90
43185;DHT22;28803;52.308;19.096;2023-01-09T06:10:02;2.40;99.90
43185;DHT22;28803;52.308;19.096;2023-01-09T06:12:28;2.40;99.90
43185;DHT22;28803;52.308;19.096;2023-01-09T06:14:55;2.40;99.90
43185;DHT22;28803;52.308;19.096;2023-01-09T06:17:21;2.40;99.90
43185;DHT22;28803;52.308;19.096;2023-01-09T06:19:48;2.30;99.90
43185;DHT22;28803;52.308;19.096;2023-01-09T06:22:16;2.30;99.90
43185;DHT22;28803;52.308;19.096;2023-01-09T06:24:43;2.30;99.90
43185;DHT22;28803;52.308;19.096;2023-01-09T06:27:09;2.30;99.90
43185;DHT22;28803;52.308;19.096;2023-01-09T06:29:39;2.30;99.90
43185;DHT22;28803;52.308;19.096;2023-01-09T06:32:05;2.30;99.90
43185;DHT22;28803;52.308;19.096;2023-01-09T06:34:32;2.40;99.90
43185;DHT22;28803;52.308;19.096;2023-01-09T06:36:58;2.40;99.90
43185;DHT22;28803;52.308;19.096;2023-01-09T06:39:25;2.40;99.90
43185;DHT22;28803;52.308;19.096;2023-01-09T06:41:51;2.50;99.90
43185;DHT22;28803;52.308;19.096;2023-01-09T06:44:18;2.40;99.90
43185;DHT22;28803;52.308;19.096;2023-01-09T06:46:44;2.40;99.90
43185;DHT22;28803;52.308;19.096;2023-01-09T06:49:11;2.40;99.90
43185;DHT22;28803;52.308;19.096;2023-01-09T06:51:37;2.40;99.90
43185;DHT22;28803;52.308;19.096;2023-01-09T06:54:04;2.40;99.90
43185;DHT22;28803;52.308;19.096;2023-01-09T06:56:30;2.40;99.90
43185;DHT22;28803;52.308;19.096;2023-01-09T06:58:57;2.40;99.90
43185;DHT22;28803;52.308;19.096;2023-01-09T07:01:23;2.50;99.90
43185;DHT22;28803;52.308;19.096;2023-01-09T07:03:50;2.50;99.90
43185;DHT22;28803;52.308;19.096;2023-01-09T07:06:16;2.50;99.90
43185;DHT22;28803;52.308;19.096;2023-01-09T07:08:45;2.50;99.90
43185;DHT22;28803;52.308;19.096;2023-01-09T07:11:13;2.30;99.90
43185;DHT22;28803;52.308;19.096;2023-01-09T07:13:40;2.40;99.90
43185;DHT22;28803;52.308;19.096;2023-01-09T07:16:07;2.40;99.90
43185;DHT22;28803;52.308;19.096;2023-01-09T07:18:34;2.40;99.90
43185;DHT22;28803;52.308;19.096;2023-01-09T07:21:00;2.40;99.90
43185;DHT22;28803;52.308;19.096;2023-01-09T07:23:27;2.40;99.90
43185;DHT22;28803;52.308;19.096;2023-01-09T07:25:53;2.40;99.90
43185;DHT22;28803;52.308;19.096;2023-01-09T07:28:20;2.40;99.90
43185;DHT22;28803;52.308;19.096;2023-01-09T07:30:46;2.40;99.90
43185;DHT22;28803;52.308;19.096;2023-01-09T07:33:13;2.50;99.90
43185;DHT22;28803;52.308;19.096;2023-01-09T07:35:39;2.50;99.90
43185;DHT22;28803;52.308;19.096;2023-01-09T07:38:06;2.60;99.90
43185;DHT22;28803;52.308;19.096;2023-01-09T07:40:32;2.60;99.90
43185;DHT22;28803;52.308;19.096;2023-01-09T07:42:59;2.60;99.90
43185;DHT22;28803;52.308;19.096;2023-01-09T07:45:25;2.60;99.90
43185;DHT22;28803;52.308;19.096;2023-01-09T07:47:52;2.70;99.90
43185;DHT22;28803;52.308;19.096;2023-01-09T07:50:19;2.70;99.90
43185;DHT22;28803;52.308;19.096;2023-01-09T07:52:46;2.70;99.90
43185;DHT22;28803;52.308;19.096;2023-01-09T07:55:12;2.70;99.90
43185;DHT22;28803;52.308;19.096;2023-01-09T07:57:41;2.80;99.90
43185;DHT22;28803;52.308;19.096;2023-01-09T08:00:08;2.90;99.90
43185;DHT22;28803;52.308;19.096;2023-01-09T08:02:36;2.90;99.90
43185;DHT22;28803;52.308;19.096;2023-01-09T08:05:03;2.90;99.90
43185;DHT22;28803;52.308;19.096;2023-01-09T08:07:30;3.00;99.90
43185;DHT22;28803;52.308;19.096;2023-01-09T08:09:56;3.00;99.90
43185;DHT22;28803;52.308;19.096;2023-01-09T08:12:23;3.00;99.90
43185;DHT22;28803;52.308;19.096;2023-01-09T08:14:49;3.10;99.90
43185;DHT22;28803;52.308;19.096;2023-01-09T08:17:16;3.10;99.90
43185;DHT22;28803;52.308;19.096;2023-01-09T08:19:43;3.10;99.90
43185;DHT22;28803;52.308;19.096;2023-01-09T08:22:09;3.10;99.90
43185;DHT22;28803;52.308;19.096;2023-01-09T08:24:36;3.10;99.90
43185;DHT22;28803;52.308;19.096;2023-01-09T08:27:02;3.10;99.90
43185;DHT22;28803;52.308;19.096;2023-01-09T08:29:29;3.20;99.90
43185;DHT22;28803;52.308;19.096;2023-01-09T08:31:56;3.20;99.90
43185;DHT22;28803;52.308;19.096;2023-01-09T08:34:22;3.20;99.90
43185;DHT22;28803;52.308;19.096;2023-01-09T08:36:49;3.30;99.90
43185;DHT22;28803;52.308;19.096;2023-01-09T08:39:15;3.30;99.90
43185;DHT22;28803;52.308;19.096;2023-01-09T08:41:42;3.30;99.90
43185;DHT22;28803;52.308;19.096;2023-01-09T08:44:27;3.30;99.90
43185;DHT22;28803;52.308;19.096;2023-01-09T08:47:15;3.30;99.90
43185;DHT22;28803;52.308;19.096;2023-01-09T08:49:43;3.30;99.90
43185;DHT22;28803;52.308;19.096;2023-01-09T08:52:10;3.40;99.90
43185;DHT22;28803;52.308;19.096;2023-01-09T08:54:37;3.40;99.90
43185;DHT22;28803;52.308;19.096;2023-01-09T08:57:05;3.40;99.90
43185;DHT22;28803;52.308;19.096;2023-01-09T08:59:33;3.40;99.90
43185;DHT22;28803;52.308;19.096;2023-01-09T09:02:00;3.40;99.90
43185;DHT22;28803;52.308;19.096;2023-01-09T09:04:26;3.50;99.90
43185;DHT22;28803;52.308;19.096;2023-01-09T09:06:53;3.50;99.90
43185;DHT22;28803;52.308;19.096;2023-01-09T09:09:19;3.50;99.90
43185;DHT22;28803;52.308;19.096;2023-01-09T09:11:46;3.50;99.90
43185;DHT22;28803;52.308;19.096;2023-01-09T09:14:12;3.60;99.90
43185;DHT22;28803;52.308;19.096;2023-01-09T09:16:57;3.60;99.90
43185;DHT22;28803;52.308;19.096;2023-01-09T09:19:24;3.60;99.90
43185;DHT22;28803;52.308;19.096;2023-01-09T09:21:50;3.70;99.90
43185;DHT22;28803;52.308;19.096;2023-01-09T09:24:17;3.70;99.90
43185;DHT22;28803;52.308;19.096;2023-01-09T09:26:43;3.70;99.90
43185;DHT22;28803;52.308;19.096;2023-01-09T09:29:11;3.80;99.90
43185;DHT22;28803;52.308;19.096;2023-01-09T09:31:37;3.80;99.90
43185;DHT22;28803;52.308;19.096;2023-01-09T09:34:07;3.80;99.90
43185;DHT22;28803;52.308;19.096;2023-01-09T09:36:33;3.90;99.90
43185;DHT22;28803;52.308;19.096;2023-01-09T09:39:00;3.90;99.90
43185;DHT22;28803;52.308;19.096;2023-01-09T09:42:23;3.90;99.90
43185;DHT22;28803;52.308;19.096;2023-01-09T09:53:20;3.90;99.90
43185;DHT22;28803;52.308;19.096;2023-01-09T09:55:51;3.90;99.90
43185;DHT22;28803;52.308;19.096;2023-01-09T10:01:06;3.90;99.90
43185;DHT22;28803;52.308;19.096;2023-01-09T10:03:36;3.90;99.90
43185;DHT22;28803;52.308;19.096;2023-01-09T10:06:20;3.90;99.90
43185;DHT22;28803;52.308;19.096;2023-01-09T10:12:01;4.00;99.90
43185;DHT22;28803;52.308;19.096;2023-01-09T10:14:29;3.90;99.90
43185;DHT22;28803;52.308;19.096;2023-01-09T10:25:21;4.10;99.90
43185;DHT22;28803;52.308;19.096;2023-01-09T10:30:36;4.10;99.90
43185;DHT22;28803;52.308;19.096;2023-01-09T10:33:41;4.20;99.90
43185;DHT22;28803;52.308;19.096;2023-01-09T10:38:45;4.30;99.90
43185;DHT22;28803;52.308;19.096;2023-01-09T10:41:21;4.40;99.90
43185;DHT22;28803;52.308;19.096;2023-01-09T10:43:55;4.40;99.90
43185;DHT22;28803;52.308;19.096;2023-01-09T10:46:32;4.40;99.90
43185;DHT22;28803;52.308;19.096;2023-01-09T10:49:10;4.50;99.90
43185;DHT22;28803;52.308;19.096;2023-01-09T10:51:45;4.60;99.90
43185;DHT22;28803;52.308;19.096;2023-01-09T10:54:18;4.60;99.90
43185;DHT22;28803;52.308;19.096;2023-01-09T10:56:50;4.70;99.90
43185;DHT22;28803;52.308;19.096;2023-01-09T10:59:19;4.70;99.90
43185;DHT22;28803;52.308;19.096;2023-01-09T11:01:46;4.70;99.90
43185;DHT22;28803;52.308;19.096;2023-01-09T11:04:35;4.80;99.90
43185;DHT22;28803;52.308;19.096;2023-01-09T11:07:11;4.80;99.90
43185;DHT22;28803;52.308;19.096;2023-01-09T11:10:02;4.90;99.90
43185;DHT22;28803;52.308;19.096;2023-01-09T11:12:31;4.90;99.90
43185;DHT22;28803;52.308;19.096;2023-01-09T11:15:25;4.90;99.90
43185;DHT22;28803;52.308;19.096;2023-01-09T11:18:14;4.90;99.90
43185;DHT22;28803;52.308;19.096;2023-01-09T11:20:42;5.00;99.90
43185;DHT22;28803;52.308;19.096;2023-01-09T11:25:53;5.00;99.90
43185;DHT22;28803;52.308;19.096;2023-01-09T11:28:20;5.10;99.90
43185;DHT22;28803;52.308;19.096;2023-01-09T11:30:56;5.10;99.90
43185;DHT22;28803;52.308;19.096;2023-01-09T11:33:33;5.10;99.90
43185;DHT22;28803;52.308;19.096;2023-01-09T11:36:09;5.10;99.90
43185;DHT22;28803;52.308;19.096;2023-01-09T11:38:48;5.10;99.90
43185;DHT22;28803;52.308;19.096;2023-01-09T11:41:19;5.00;99.90
43185;DHT22;28803;52.308;19.096;2023-01-09T11:43:48;5.00;99.90
43185;DHT22;28803;52.308;19.096;2023-01-09T11:49:20;5.10;99.90
43185;DHT22;28803;52.308;19.096;2023-01-09T11:52:16;5.00;99.90
43185;DHT22;28803;52.308;19.096;2023-01-09T11:54:58;5.10;99.90
43185;DHT22;28803;52.308;19.096;2023-01-09T11:57:26;5.00;99.90
43185;DHT22;28803;52.308;19.096;2023-01-09T11:59:58;5.10;99.90
43185;DHT22;28803;52.308;19.096;2023-01-09T12:02:33;5.00;99.90
43185;DHT22;28803;52.308;19.096;2023-01-09T12:08:16;5.10;99.90
43185;DHT22;28803;52.308;19.096;2023-01-09T12:16:37;5.10;99.90
43185;DHT22;28803;52.308;19.096;2023-01-09T12:20:07;5.10;99.90
43185;DHT22;28803;52.308;19.096;2023-01-09T12:25:29;5.10;99.90
43185;DHT22;28803;52.308;19.096;2023-01-09T12:31:37;5.10;99.90
43185;DHT22;28803;52.308;19.096;2023-01-09T12:45:26;5.20;99.90
43185;DHT22;28803;52.308;19.096;2023-01-09T12:52:45;5.30;99.90
43185;DHT22;28803;52.308;19.096;2023-01-09T12:55:17;5.40;99.90
43185;DHT22;28803;52.308;19.096;2023-01-09T12:57:51;5.30;99.90
43185;DHT22;28803;52.308;19.096;2023-01-09T13:00:22;5.40;99.90
43185;DHT22;28803;52.308;19.096;2023-01-09T13:03:01;5.40;99.90
43185;DHT22;28803;52.308;19.096;2023-01-09T13:05:47;5.30;99.90
43185;DHT22;28803;52.308;19.096;2023-01-09T13:11:07;5.40;99.90
43185;DHT22;28803;52.308;19.096;2023-01-09T13:16:42;5.40;99.90
43185;DHT22;28803;52.308;19.096;2023-01-09T13:19:37;5.50;99.90
43185;DHT22;28803;52.308;19.096;2023-01-09T13:22:08;5.50;99.90
43185;DHT22;28803;52.308;19.096;2023-01-09T13:27:39;5.50;99.90
43185;DHT22;28803;52.308;19.096;2023-01-09T13:30:19;5.50;99.90
43185;DHT22;28803;52.308;19.096;2023-01-09T13:33:02;5.50;99.90
43185;DHT22;28803;52.308;19.096;2023-01-09T13:35:33;5.60;99.90
43185;DHT22;28803;52.308;19.096;2023-01-09T13:37:59;5.60;99.90
43185;DHT22;28803;52.308;19.096;2023-01-09T13:40:27;5.60;99.90
43185;DHT22;28803;52.308;19.096;2023-01-09T13:43:04;5.70;99.90
43185;DHT22;28803;52.308;19.096;2023-01-09T13:45:33;5.70;99.90
43185;DHT22;28803;52.308;19.096;2023-01-09T13:50:37;5.70;99.90
43185;DHT22;28803;52.308;19.096;2023-01-09T13:56:11;5.80;99.90
43185;DHT22;28803;52.308;19.096;2023-01-09T14:06:41;5.90;99.90
43185;DHT22;28803;52.308;19.096;2023-01-09T14:11:44;5.80;99.90
43185;DHT22;28803;52.308;19.096;2023-01-09T14:14:26;5.80;99.90
43185;DHT22;28803;52.308;19.096;2023-01-09T14:16:55;5.90;99.90
43185;DHT22;28803;52.308;19.096;2023-01-09T14:19:27;5.80;99.90
43185;DHT22;28803;52.308;19.096;2023-01-09T14:21:56;5.80;99.90
43185;DHT22;28803;52.308;19.096;2023-01-09T14:24:44;5.80;99.90
43185;DHT22;28803;52.308;19.096;2023-01-09T14:33:04;5.80;99.90
43185;DHT22;28803;52.308;19.096;2023-01-09T14:38:56;5.80;99.90
43185;DHT22;28803;52.308;19.096;2023-01-09T14:41:50;5.70;99.90
43185;DHT22;28803;52.308;19.096;2023-01-09T14:44:49;5.70;99.90
43185;DHT22;28803;52.308;19.096;2023-01-09T14:47:21;5.70;99.90
43185;DHT22;28803;52.308;19.096;2023-01-09T14:50:05;5.70;99.90
43185;DHT22;28803;52.308;19.096;2023-01-09T14:52:37;5.60;99.90
43185;DHT22;28803;52.308;19.096;2023-01-09T14:58:22;5.60;99.90
43185;DHT22;28803;52.308;19.096;2023-01-09T15:01:11;5.60;99.90
43185;DHT22;28803;52.308;19.096;2023-01-09T15:03:42;5.60;99.90
43185;DHT22;28803;52.308;19.096;2023-01-09T15:06:19;5.50;99.90
43185;DHT22;28803;52.308;19.096;2023-01-09T15:08:50;5.50;99.90
43185;DHT22;28803;52.308;19.096;2023-01-09T15:11:19;5.50;99.90
43185;DHT22;28803;52.308;19.096;2023-01-09T15:13:47;5.50;99.90
43185;DHT22;28803;52.308;19.096;2023-01-09T15:16:20;5.50;99.90
43185;DHT22;28803;52.308;19.096;2023-01-09T15:18:53;5.50;99.90
43185;DHT22;28803;52.308;19.096;2023-01-09T15:21:26;5.50;99.90
43185;DHT22;28803;52.308;19.096;2023-01-09T15:24:25;5.50;99.90
43185;DHT22;28803;52.308;19.096;2023-01-09T15:27:10;5.40;99.90
43185;DHT22;28803;52.308;19.096;2023-01-09T15:29:36;5.40;99.90
43185;DHT22;28803;52.308;19.096;2023-01-09T15:32:25;5.40;99.90
43185;DHT22;28803;52.308;19.096;2023-01-09T15:34:53;5.50;99.90
43185;DHT22;28803;52.308;19.096;2023-01-09T15:37:34;5.40;99.90
43185;DHT22;28803;52.308;19.096;2023-01-09T15:40:06;5.40;99.90
43185;DHT22;28803;52.308;19.096;2023-01-09T15:42:36;5.40;99.90
43185;DHT22;28803;52.308;19.096;2023-01-09T15:45:42;5.40;99.90
43185;DHT22;28803;52.308;19.096;2023-01-09T15:48:21;5.40;99.90
43185;DHT22;28803;52.308;19.096;2023-01-09T15:50:50;5.40;99.90
43185;DHT22;28803;52.308;19.096;2023-01-09T15:53:20;5.40;99.90
43185;DHT22;28803;52.308;19.096;2023-01-09T15:56:13;5.30;99.90
43185;DHT22;28803;52.308;19.096;2023-01-09T15:58:50;5.30;99.90
43185;DHT22;28803;52.308;19.096;2023-01-09T16:01:33;5.30;99.90
43185;DHT22;28803;52.308;19.096;2023-01-09T16:04:12;5.30;99.90
43185;DHT22;28803;52.308;19.096;2023-01-09T16:06:47;5.30;99.90
43185;DHT22;28803;52.308;19.096;2023-01-09T16:09:27;5.30;99.90
43185;DHT22;28803;52.308;19.096;2023-01-09T16:11:59;5.30;99.90
43185;DHT22;28803;52.308;19.096;2023-01-09T16:14:37;5.30;99.90
43185;DHT22;28803;52.308;19.096;2023-01-09T16:17:06;5.30;99.90
43185;DHT22;28803;52.308;19.096;2023-01-09T16:22:35;5.30;99.90
43185;DHT22;28803;52.308;19.096;2023-01-09T16:25:22;5.30;99.90
43185;DHT22;28803;52.308;19.096;2023-01-09T16:33:20;5.30;99.90
43185;DHT22;28803;52.308;19.096;2023-01-09T16:35:48;5.30;99.90
43185;DHT22;28803;52.308;19.096;2023-01-09T16:38:15;5.30;99.90
43185;DHT22;28803;52.308;19.096;2023-01-09T16:40:58;5.30;99.90
43185;DHT22;28803;52.308;19.096;2023-01-09T16:43:45;5.30;99.90
43185;DHT22;28803;52.308;19.096;2023-01-09T16:46:16;5.30;99.90
43185;DHT22;28803;52.308;19.096;2023-01-09T16:48:44;5.40;99.90
43185;DHT22;28803;52.308;19.096;2023-01-09T16:51:14;5.40;99.90
43185;DHT22;28803;52.308;19.096;2023-01-09T16:53:42;5.40;99.90
43185;DHT22;28803;52.308;19.096;2023-01-09T16:56:28;5.40;99.90
43185;DHT22;28803;52.308;19.096;2023-01-09T16:58:55;5.40;99.90
43185;DHT22;28803;52.308;19.096;2023-01-09T17:01:22;5.40;99.90
43185;DHT22;28803;52.308;19.096;2023-01-09T17:03:49;5.40;99.90
43185;DHT22;28803;52.308;19.096;2023-01-09T17:06:28;5.40;99.90
43185;DHT22;28803;52.308;19.096;2023-01-09T17:08:55;5.40;99.90
43185;DHT22;28803;52.308;19.096;2023-01-09T17:11:24;5.40;99.90
43185;DHT22;28803;52.308;19.096;2023-01-09T17:13:55;5.40;99.90
43185;DHT22;28803;52.308;19.096;2023-01-09T17:16:22;5.40;99.90
43185;DHT22;28803;52.308;19.096;2023-01-09T17:18:49;5.40;99.90
43185;DHT22;28803;52.308;19.096;2023-01-09T17:21:26;5.40;99.90
43185;DHT22;28803;52.308;19.096;2023-01-09T17:23:59;5.40;99.90
43185;DHT22;28803;52.308;19.096;2023-01-09T17:26:48;5.40;99.90
43185;DHT22;28803;52.308;19.096;2023-01-09T17:29:34;5.40;99.90
43185;DHT22;28803;52.308;19.096;2023-01-09T17:32:01;5.30;99.90
43185;DHT22;28803;52.308;19.096;2023-01-09T17:34:27;5.40;99.90
43185;DHT22;28803;52.308;19.096;2023-01-09T17:36:54;5.30;99.90
43185;DHT22;28803;52.308;19.096;2023-01-09T17:39:21;5.30;99.90
43185;DHT22;28803;52.308;19.096;2023-01-09T17:41:49;5.30;99.90
43185;DHT22;28803;52.308;19.096;2023-01-09T17:44:15;5.30;99.90
43185;DHT22;28803;52.308;19.096;2023-01-09T17:46:43;5.30;99.90
43185;DHT22;28803;52.308;19.096;2023-01-09T17:49:15;5.30;99.90
43185;DHT22;28803;52.308;19.096;2023-01-09T17:51:42;5.30;99.90
43185;DHT22;28803;52.308;19.096;2023-01-09T17:54:09;5.30;99.90
43185;DHT22;28803;52.308;19.096;2023-01-09T17:56:38;5.30;99.90
43185;DHT22;28803;52.308;19.096;2023-01-09T17:59:05;5.30;99.90
43185;DHT22;28803;52.308;19.096;2023-01-09T18:01:35;5.30;99.90
43185;DHT22;28803;52.308;19.096;2023-01-09T18:04:01;5.20;99.90
43185;DHT22;28803;52.308;19.096;2023-01-09T18:06:28;5.30;99.90
43185;DHT22;28803;52.308;19.096;2023-01-09T18:08:54;5.20;99.90
43185;DHT22;28803;52.308;19.096;2023-01-09T18:11:24;5.30;99.90
43185;DHT22;28803;52.308;19.096;2023-01-09T18:13:51;5.20;99.90